PROFILE

 METAR AND TAF INFORMATION
ADDS - METARS form results

(0409 UTC 13 July 2020)
http://aviationweather.gov/metar/data/
 
TAF MHTG 130345Z 1306/1406 01006KT 9999 FEW012 SCT026 TX29/1319Z TN19/1312Z BECMG 1315/1717 08008KT SCT030TCU TEMPO 1321/1402 7000 TS VCSH SCT030CB SCT080 BECMG 1402/1404 02006KT FEW010 SCT026 

 AIRPORT MAP

 RUNWAY INFORMATION
Runway 02 Runway length 6112 ft Runway width 148 ft
Runway elevation 3337 ft Runway displaced threshold 670 ft Runway heading 19
Runway 20 Runway length 6112 ft Runway width 148 ft
Runway elevation 3268 ft Runway displaced threshold 0 ft Runway heading 199

 AIRPORT FREQUENCIES
Type APP Name TONCONTIN Frequency 119.1 MHZ
Type ATIS Name ATIS Frequency 112.3 MHZ
Type GND Name GND Frequency 121.9 MHZ
Type RDO Name TEGUCIGALP Frequency 126.7 MHZ
Type TWR Name TWR Frequency 118.7 MHZ

 AIRPORT NEAR NAVIGATION AIDS
Type NDB Name Picacho Frequency 334 KHZ
Type VOR-DME Name Toncontin Frequency 112300 KHZ
Type NDB Name Toncontin Frequency 405 KHZ